sensor_id;sensor_type;location;lat;lon;timestamp;temperature;humidity
7206;DHT22;3644;53.480;10.004;2024-03-22T06:22:59;13.00;99.90
7206;DHT22;3644;53.480;10.004;2024-03-22T06:25:25;13.20;99.90
7206;DHT22;3644;53.480;10.004;2024-03-22T06:27:50;13.30;99.90
7206;DHT22;3644;53.480;10.004;2024-03-22T06:30:16;13.30;99.90
7206;DHT22;3644;53.480;10.004;2024-03-22T06:32:41;13.30;99.90
7206;DHT22;3644;53.480;10.004;2024-03-22T06:35:07;13.40;99.90
7206;DHT22;3644;53.480;10.004;2024-03-22T06:37:32;13.40;99.90
7206;DHT22;3644;53.480;10.004;2024-03-22T06:39:58;13.70;99.90
7206;DHT22;3644;53.480;10.004;2024-03-22T06:42:24;13.80;99.90
7206;DHT22;3644;53.480;10.004;2024-03-22T06:44:49;14.10;99.90
7206;DHT22;3644;53.480;10.004;2024-03-22T06:47:15;14.20;99.90
7206;DHT22;3644;53.480;10.004;2024-03-22T06:49:40;14.40;99.90
7206;DHT22;3644;53.480;10.004;2024-03-22T06:52:06;14.20;99.90
7206;DHT22;3644;53.480;10.004;2024-03-22T06:54:31;14.20;99.90
7206;DHT22;3644;53.480;10.004;2024-03-22T06:56:57;14.40;99.90
7206;DHT22;3644;53.480;10.004;2024-03-22T06:59:22;14.30;99.90
7206;DHT22;3644;53.480;10.004;2024-03-22T07:01:48;14.30;99.90
7206;DHT22;3644;53.480;10.004;2024-03-22T07:04:14;14.20;99.90
7206;DHT22;3644;53.480;10.004;2024-03-22T07:06:39;14.20;99.90
7206;DHT22;3644;53.480;10.004;2024-03-22T07:09:06;14.10;99.90
7206;DHT22;3644;53.480;10.004;2024-03-22T07:11:32;14.10;99.90
7206;DHT22;3644;53.480;10.004;2024-03-22T07:13:58;14.20;99.90
7206;DHT22;3644;53.480;10.004;2024-03-22T07:16:23;14.20;99.90
7206;DHT22;3644;53.480;10.004;2024-03-22T07:18:49;14.20;99.90
7206;DHT22;3644;53.480;10.004;2024-03-22T07:21:14;14.20;99.90
7206;DHT22;3644;53.480;10.004;2024-03-22T07:23:40;14.10;99.90
7206;DHT22;3644;53.480;10.004;2024-03-22T07:26:05;13.90;99.90
7206;DHT22;3644;53.480;10.004;2024-03-22T07:28:33;14.00;99.90
7206;DHT22;3644;53.480;10.004;2024-03-22T07:30:59;14.10;99.90
7206;DHT22;3644;53.480;10.004;2024-03-22T07:33:24;14.20;99.90
7206;DHT22;3644;53.480;10.004;2024-03-22T07:35:50;14.30;99.90
7206;DHT22;3644;53.480;10.004;2024-03-22T07:38:15;14.10;99.90
7206;DHT22;3644;53.480;10.004;2024-03-22T07:40:41;14.00;99.90
7206;DHT22;3644;53.480;10.004;2024-03-22T07:43:06;14.00;99.90
7206;DHT22;3644;53.480;10.004;2024-03-22T07:45:34;14.00;99.90
7206;DHT22;3644;53.480;10.004;2024-03-22T07:48:00;14.00;99.90
7206;DHT22;3644;53.480;10.004;2024-03-22T07:50:25;14.20;99.90
7206;DHT22;3644;53.480;10.004;2024-03-22T07:52:51;14.10;99.90
7206;DHT22;3644;53.480;10.004;2024-03-22T07:55:17;14.10;99.90
7206;DHT22;3644;53.480;10.004;2024-03-22T07:57:42;14.00;99.90
7206;DHT22;3644;53.480;10.004;2024-03-22T08:00:08;14.10;99.90
7206;DHT22;3644;53.480;10.004;2024-03-22T08:02:35;14.20;99.90
7206;DHT22;3644;53.480;10.004;2024-03-22T08:05:00;14.10;99.90
7206;DHT22;3644;53.480;10.004;2024-03-22T08:07:27;14.00;99.90
7206;DHT22;3644;53.480;10.004;2024-03-22T08:09:52;14.30;99.90
7206;DHT22;3644;53.480;10.004;2024-03-22T08:12:18;14.20;99.90
7206;DHT22;3644;53.480;10.004;2024-03-22T08:14:44;14.20;99.90
7206;DHT22;3644;53.480;10.004;2024-03-22T08:17:10;14.40;99.90
7206;DHT22;3644;53.480;10.004;2024-03-22T08:19:36;14.40;99.90
7206;DHT22;3644;53.480;10.004;2024-03-22T08:22:02;14.40;99.90
7206;DHT22;3644;53.480;10.004;2024-03-22T08:24:27;14.50;99.90
7206;DHT22;3644;53.480;10.004;2024-03-22T08:26:53;14.30;99.90
7206;DHT22;3644;53.480;10.004;2024-03-22T08:29:19;14.40;99.90
7206;DHT22;3644;53.480;10.004;2024-03-22T08:31:44;14.40;99.90
7206;DHT22;3644;53.480;10.004;2024-03-22T08:34:10;14.60;99.90
7206;DHT22;3644;53.480;10.004;2024-03-22T08:36:35;14.50;99.90
7206;DHT22;3644;53.480;10.004;2024-03-22T08:39:01;14.40;99.90
7206;DHT22;3644;53.480;10.004;2024-03-22T08:41:27;14.20;99.90
7206;DHT22;3644;53.480;10.004;2024-03-22T08:43:53;14.00;99.90
7206;DHT22;3644;53.480;10.004;2024-03-22T08:46:18;14.00;99.90
7206;DHT22;3644;53.480;10.004;2024-03-22T08:48:44;14.10;99.90
7206;DHT22;3644;53.480;10.004;2024-03-22T08:51:10;14.20;99.90
7206;DHT22;3644;53.480;10.004;2024-03-22T08:53:35;14.20;99.90
7206;DHT22;3644;53.480;10.004;2024-03-22T08:56:01;14.30;99.90
7206;DHT22;3644;53.480;10.004;2024-03-22T08:58:26;14.30;99.90
7206;DHT22;3644;53.480;10.004;2024-03-22T09:00:52;14.40;99.90
7206;DHT22;3644;53.480;10.004;2024-03-22T09:03:17;14.40;99.90
7206;DHT22;3644;53.480;10.004;2024-03-22T09:05:43;14.40;99.90
7206;DHT22;3644;53.480;10.004;2024-03-22T09:08:09;14.00;99.90
7206;DHT22;3644;53.480;10.004;2024-03-22T09:10:34;13.90;99.90
7206;DHT22;3644;53.480;10.004;2024-03-22T09:13:00;14.00;99.90
7206;DHT22;3644;53.480;10.004;2024-03-22T09:15:25;14.10;99.90
7206;DHT22;3644;53.480;10.004;2024-03-22T09:17:54;14.00;99.90
7206;DHT22;3644;53.480;10.004;2024-03-22T09:20:20;13.90;99.90
7206;DHT22;3644;53.480;10.004;2024-03-22T09:22:45;13.60;99.90
7206;DHT22;3644;53.480;10.004;2024-03-22T09:25:11;13.90;99.90
7206;DHT22;3644;53.480;10.004;2024-03-22T09:27:37;14.00;99.90
7206;DHT22;3644;53.480;10.004;2024-03-22T09:30:03;13.90;99.90
7206;DHT22;3644;53.480;10.004;2024-03-22T09:32:29;13.90;99.90
7206;DHT22;3644;53.480;10.004;2024-03-22T09:34:55;14.00;99.90
7206;DHT22;3644;53.480;10.004;2024-03-22T09:37:20;14.00;99.90
7206;DHT22;3644;53.480;10.004;2024-03-22T09:39:46;13.80;99.90
7206;DHT22;3644;53.480;10.004;2024-03-22T09:42:16;13.90;99.90
7206;DHT22;3644;53.480;10.004;2024-03-22T09:44:47;13.90;99.90
7206;DHT22;3644;53.480;10.004;2024-03-22T09:47:15;13.80;99.90
7206;DHT22;3644;53.480;10.004;2024-03-22T09:49:41;13.90;99.90
7206;DHT22;3644;53.480;10.004;2024-03-22T09:52:12;13.80;99.90
7206;DHT22;3644;53.480;10.004;2024-03-22T09:54:38;13.60;99.90
7206;DHT22;3644;53.480;10.004;2024-03-22T09:57:04;13.60;99.90
7206;DHT22;3644;53.480;10.004;2024-03-22T09:59:30;13.40;99.90
7206;DHT22;3644;53.480;10.004;2024-03-22T10:01:56;13.20;99.90
7206;DHT22;3644;53.480;10.004;2024-03-22T10:04:23;13.20;99.90
7206;DHT22;3644;53.480;10.004;2024-03-22T10:06:49;13.40;99.90
7206;DHT22;3644;53.480;10.004;2024-03-22T10:09:15;13.50;99.90
7206;DHT22;3644;53.480;10.004;2024-03-22T10:11:44;13.60;99.90
7206;DHT22;3644;53.480;10.004;2024-03-22T10:14:09;13.70;99.90
7206;DHT22;3644;53.480;10.004;2024-03-22T10:16:36;13.70;99.90
7206;DHT22;3644;53.480;10.004;2024-03-22T10:19:02;13.50;99.90
7206;DHT22;3644;53.480;10.004;2024-03-22T10:21:27;13.50;99.90
7206;DHT22;3644;53.480;10.004;2024-03-22T10:23:54;13.50;99.90
7206;DHT22;3644;53.480;10.004;2024-03-22T10:26:20;13.50;99.90
7206;DHT22;3644;53.480;10.004;2024-03-22T10:28:46;13.30;99.90
7206;DHT22;3644;53.480;10.004;2024-03-22T10:31:14;13.50;99.90
7206;DHT22;3644;53.480;10.004;2024-03-22T10:33:41;13.20;99.90
7206;DHT22;3644;53.480;10.004;2024-03-22T10:36:07;13.10;99.90
7206;DHT22;3644;53.480;10.004;2024-03-22T10:38:35;13.10;99.90
7206;DHT22;3644;53.480;10.004;2024-03-22T10:41:01;13.20;99.90
7206;DHT22;3644;53.480;10.004;2024-03-22T10:43:27;13.30;99.90
7206;DHT22;3644;53.480;10.004;2024-03-22T10:45:57;13.20;99.90
7206;DHT22;3644;53.480;10.004;2024-03-22T10:48:28;13.10;99.90
7206;DHT22;3644;53.480;10.004;2024-03-22T10:50:55;13.00;99.90
7206;DHT22;3644;53.480;10.004;2024-03-22T10:53:24;13.10;99.90
7206;DHT22;3644;53.480;10.004;2024-03-22T10:55:51;13.20;99.90
7206;DHT22;3644;53.480;10.004;2024-03-22T10:58:20;13.30;99.90
7206;DHT22;3644;53.480;10.004;2024-03-22T11:00:46;13.30;99.90
7206;DHT22;3644;53.480;10.004;2024-03-22T11:03:13;13.00;99.90
7206;DHT22;3644;53.480;10.004;2024-03-22T11:05:49;12.90;99.90
7206;DHT22;3644;53.480;10.004;2024-03-22T11:08:27;12.60;99.90
7206;DHT22;3644;53.480;10.004;2024-03-22T11:10:53;12.80;99.90
7206;DHT22;3644;53.480;10.004;2024-03-22T11:13:19;12.90;99.90
7206;DHT22;3644;53.480;10.004;2024-03-22T11:15:48;13.00;99.90
7206;DHT22;3644;53.480;10.004;2024-03-22T11:18:13;13.00;99.90
7206;DHT22;3644;53.480;10.004;2024-03-22T11:20:39;13.10;99.90
7206;DHT22;3644;53.480;10.004;2024-03-22T11:23:05;12.90;99.90
7206;DHT22;3644;53.480;10.004;2024-03-22T11:25:32;12.70;99.90
7206;DHT22;3644;53.480;10.004;2024-03-22T11:27:58;12.70;99.90
7206;DHT22;3644;53.480;10.004;2024-03-22T11:30:30;12.80;99.90
7206;DHT22;3644;53.480;10.004;2024-03-22T11:32:56;12.90;99.90
7206;DHT22;3644;53.480;10.004;2024-03-22T11:35:22;13.10;99.90
7206;DHT22;3644;53.480;10.004;2024-03-22T11:37:49;13.20;99.90
7206;DHT22;3644;53.480;10.004;2024-03-22T11:40:15;13.20;99.90
7206;DHT22;3644;53.480;10.004;2024-03-22T11:42:42;13.20;99.90
7206;DHT22;3644;53.480;10.004;2024-03-22T11:45:10;13.20;99.90
7206;DHT22;3644;53.480;10.004;2024-03-22T11:47:36;13.20;99.90
7206;DHT22;3644;53.480;10.004;2024-03-22T11:50:02;13.30;99.90
7206;DHT22;3644;53.480;10.004;2024-03-22T11:52:29;13.30;99.90
7206;DHT22;3644;53.480;10.004;2024-03-22T11:54:55;13.40;99.90
7206;DHT22;3644;53.480;10.004;2024-03-22T11:57:21;13.40;99.90
7206;DHT22;3644;53.480;10.004;2024-03-22T11:59:47;13.20;99.90
7206;DHT22;3644;53.480;10.004;2024-03-22T12:02:13;13.20;99.90
7206;DHT22;3644;53.480;10.004;2024-03-22T12:04:42;13.30;99.90
7206;DHT22;3644;53.480;10.004;2024-03-22T12:07:12;13.50;99.90
7206;DHT22;3644;53.480;10.004;2024-03-22T12:09:38;13.60;99.90
7206;DHT22;3644;53.480;10.004;2024-03-22T12:12:06;13.40;99.90
7206;DHT22;3644;53.480;10.004;2024-03-22T12:14:33;13.30;99.90
7206;DHT22;3644;53.480;10.004;2024-03-22T12:16:58;13.30;99.90
7206;DHT22;3644;53.480;10.004;2024-03-22T12:19:24;13.30;99.90
7206;DHT22;3644;53.480;10.004;2024-03-22T12:21:49;13.30;99.90
7206;DHT22;3644;53.480;10.004;2024-03-22T12:24:15;13.60;99.90
7206;DHT22;3644;53.480;10.004;2024-03-22T12:26:40;13.90;99.90
7206;DHT22;3644;53.480;10.004;2024-03-22T12:29:06;14.00;99.90
7206;DHT22;3644;53.480;10.004;2024-03-22T12:31:32;14.00;99.90
7206;DHT22;3644;53.480;10.004;2024-03-22T12:33:58;14.00;99.90
7206;DHT22;3644;53.480;10.004;2024-03-22T12:36:24;14.10;99.90
7206;DHT22;3644;53.480;10.004;2024-03-22T12:38:50;13.80;99.90
7206;DHT22;3644;53.480;10.004;2024-03-22T12:41:16;13.50;99.90
7206;DHT22;3644;53.480;10.004;2024-03-22T12:43:41;13.50;99.90
7206;DHT22;3644;53.480;10.004;2024-03-22T12:46:08;13.30;99.90
7206;DHT22;3644;53.480;10.004;2024-03-22T12:48:34;13.40;99.90
7206;DHT22;3644;53.480;10.004;2024-03-22T12:51:00;13.40;99.90
7206;DHT22;3644;53.480;10.004;2024-03-22T12:53:25;13.40;99.90
7206;DHT22;3644;53.480;10.004;2024-03-22T12:55:51;13.50;99.90
7206;DHT22;3644;53.480;10.004;2024-03-22T12:58:16;13.30;99.90
7206;DHT22;3644;53.480;10.004;2024-03-22T13:00:42;13.40;99.90
7206;DHT22;3644;53.480;10.004;2024-03-22T13:03:07;13.40;99.90
7206;DHT22;3644;53.480;10.004;2024-03-22T13:05:34;13.40;99.90
7206;DHT22;3644;53.480;10.004;2024-03-22T13:07:59;13.30;99.90
7206;DHT22;3644;53.480;10.004;2024-03-22T13:10:25;13.40;99.90
7206;DHT22;3644;53.480;10.004;2024-03-22T13:12:51;13.10;99.90
7206;DHT22;3644;53.480;10.004;2024-03-22T13:15:16;13.10;99.90
7206;DHT22;3644;53.480;10.004;2024-03-22T13:17:42;13.10;99.90
7206;DHT22;3644;53.480;10.004;2024-03-22T13:20:08;13.20;99.90
7206;DHT22;3644;53.480;10.004;2024-03-22T13:22:37;13.50;99.90
7206;DHT22;3644;53.480;10.004;2024-03-22T13:25:03;13.60;99.90
7206;DHT22;3644;53.480;10.004;2024-03-22T13:27:32;13.70;99.90
7206;DHT22;3644;53.480;10.004;2024-03-22T13:29:58;13.70;99.90
7206;DHT22;3644;53.480;10.004;2024-03-22T13:32:23;13.70;99.90
7206;DHT22;3644;53.480;10.004;2024-03-22T13:34:49;13.60;99.90
7206;DHT22;3644;53.480;10.004;2024-03-22T13:37:15;13.70;99.90
7206;DHT22;3644;53.480;10.004;2024-03-22T13:39:41;13.40;99.90
7206;DHT22;3644;53.480;10.004;2024-03-22T13:42:06;13.20;99.90
7206;DHT22;3644;53.480;10.004;2024-03-22T13:44:33;13.30;99.90
7206;DHT22;3644;53.480;10.004;2024-03-22T13:46:59;13.20;99.90
7206;DHT22;3644;53.480;10.004;2024-03-22T13:49:24;13.30;99.90
7206;DHT22;3644;53.480;10.004;2024-03-22T13:51:50;13.40;99.90
7206;DHT22;3644;53.480;10.004;2024-03-22T13:54:15;13.40;99.90
7206;DHT22;3644;53.480;10.004;2024-03-22T13:56:41;13.00;99.90
7206;DHT22;3644;53.480;10.004;2024-03-22T13:59:07;13.00;99.90
7206;DHT22;3644;53.480;10.004;2024-03-22T14:01:36;13.00;99.90
7206;DHT22;3644;53.480;10.004;2024-03-22T14:04:03;13.20;99.90
7206;DHT22;3644;53.480;10.004;2024-03-22T14:06:29;13.40;99.90
7206;DHT22;3644;53.480;10.004;2024-03-22T14:08:55;13.40;99.90
7206;DHT22;3644;53.480;10.004;2024-03-22T14:11:26;13.60;99.90
7206;DHT22;3644;53.480;10.004;2024-03-22T14:13:51;13.50;99.90
7206;DHT22;3644;53.480;10.004;2024-03-22T14:16:17;13.40;99.90
7206;DHT22;3644;53.480;10.004;2024-03-22T14:18:42;13.40;99.90
7206;DHT22;3644;53.480;10.004;2024-03-22T14:21:08;13.10;99.90
7206;DHT22;3644;53.480;10.004;2024-03-22T14:23:33;13.40;99.90
7206;DHT22;3644;53.480;10.004;2024-03-22T14:25:59;13.50;99.90
7206;DHT22;3644;53.480;10.004;2024-03-22T14:28:25;13.50;99.90
7206;DHT22;3644;53.480;10.004;2024-03-22T14:30:50;13.30;99.90
7206;DHT22;3644;53.480;10.004;2024-03-22T14:33:16;13.00;99.90
7206;DHT22;3644;53.480;10.004;2024-03-22T14:35:42;13.10;99.90
7206;DHT22;3644;53.480;10.004;2024-03-22T14:38:08;13.30;99.90
7206;DHT22;3644;53.480;10.004;2024-03-22T14:40:33;13.50;99.90
7206;DHT22;3644;53.480;10.004;2024-03-22T14:43:03;13.40;99.90
7206;DHT22;3644;53.480;10.004;2024-03-22T14:45:30;13.20;99.90
7206;DHT22;3644;53.480;10.004;2024-03-22T14:47:55;13.10;99.90
7206;DHT22;3644;53.480;10.004;2024-03-22T14:50:21;13.10;99.90
7206;DHT22;3644;53.480;10.004;2024-03-22T14:52:49;12.80;99.90
7206;DHT22;3644;53.480;10.004;2024-03-22T14:55:14;13.00;99.90
7206;DHT22;3644;53.480;10.004;2024-03-22T14:57:40;13.00;99.90
7206;DHT22;3644;53.480;10.004;2024-03-22T15:00:06;12.90;99.90
7206;DHT22;3644;53.480;10.004;2024-03-22T15:02:36;12.70;99.90
7206;DHT22;3644;53.480;10.004;2024-03-22T15:05:02;12.70;99.90
7206;DHT22;3644;53.480;10.004;2024-03-22T15:07:27;12.70;99.90
7206;DHT22;3644;53.480;10.004;2024-03-22T15:09:53;12.70;99.90
7206;DHT22;3644;53.480;10.004;2024-03-22T15:12:19;12.80;99.90
7206;DHT22;3644;53.480;10.004;2024-03-22T15:14:44;12.50;99.90
7206;DHT22;3644;53.480;10.004;2024-03-22T15:17:10;12.30;99.90
7206;DHT22;3644;53.480;10.004;2024-03-22T15:19:37;12.00;99.90
7206;DHT22;3644;53.480;10.004;2024-03-22T15:22:02;12.00;99.90
7206;DHT22;3644;53.480;10.004;2024-03-22T15:24:29;12.00;99.90
7206;DHT22;3644;53.480;10.004;2024-03-22T15:26:55;12.10;99.90
7206;DHT22;3644;53.480;10.004;2024-03-22T15:29:20;12.20;99.90
7206;DHT22;3644;53.480;10.004;2024-03-22T15:31:46;12.10;99.90
7206;DHT22;3644;53.480;10.004;2024-03-22T15:34:11;12.00;99.90
7206;DHT22;3644;53.480;10.004;2024-03-22T15:36:37;12.00;99.90
7206;DHT22;3644;53.480;10.004;2024-03-22T15:39:03;12.10;99.90
7206;DHT22;3644;53.480;10.004;2024-03-22T15:41:30;12.30;99.90
7206;DHT22;3644;53.480;10.004;2024-03-22T15:43:55;12.30;99.90
7206;DHT22;3644;53.480;10.004;2024-03-22T15:46:21;12.20;99.90
7206;DHT22;3644;53.480;10.004;2024-03-22T15:48:47;12.30;99.90
7206;DHT22;3644;53.480;10.004;2024-03-22T15:51:12;12.30;99.90
7206;DHT22;3644;53.480;10.004;2024-03-22T15:53:39;12.20;99.90
7206;DHT22;3644;53.480;10.004;2024-03-22T15:56:04;12.10;99.90
7206;DHT22;3644;53.480;10.004;2024-03-22T15:58:30;12.30;99.90
7206;DHT22;3644;53.480;10.004;2024-03-22T16:00:56;12.20;99.90
7206;DHT22;3644;53.480;10.004;2024-03-22T16:03:22;12.50;99.90
7206;DHT22;3644;53.480;10.004;2024-03-22T16:05:51;12.50;99.90
7206;DHT22;3644;53.480;10.004;2024-03-22T16:08:18;12.40;99.90
7206;DHT22;3644;53.480;10.004;2024-03-22T16:10:44;12.30;99.90
7206;DHT22;3644;53.480;10.004;2024-03-22T16:13:10;12.30;99.90
7206;DHT22;3644;53.480;10.004;2024-03-22T16:15:36;12.30;99.90
7206;DHT22;3644;53.480;10.004;2024-03-22T16:18:01;12.40;99.90
7206;DHT22;3644;53.480;10.004;2024-03-22T16:20:26;12.50;99.90
7206;DHT22;3644;53.480;10.004;2024-03-22T16:22:52;12.30;99.90
7206;DHT22;3644;53.480;10.004;2024-03-22T16:25:17;12.40;99.90
7206;DHT22;3644;53.480;10.004;2024-03-22T16:27:43;12.50;99.90
7206;DHT22;3644;53.480;10.004;2024-03-22T16:30:09;12.70;99.90
7206;DHT22;3644;53.480;10.004;2024-03-22T16:32:34;12.60;99.90
7206;DHT22;3644;53.480;10.004;2024-03-22T16:35:00;12.60;99.90
7206;DHT22;3644;53.480;10.004;2024-03-22T16:37:25;12.80;99.90
7206;DHT22;3644;53.480;10.004;2024-03-22T16:39:51;12.70;99.90
7206;DHT22;3644;53.480;10.004;2024-03-22T16:42:16;12.80;99.90
7206;DHT22;3644;53.480;10.004;2024-03-22T16:44:42;12.80;99.90
7206;DHT22;3644;53.480;10.004;2024-03-22T16:47:07;12.90;99.90
7206;DHT22;3644;53.480;10.004;2024-03-22T16:49:33;12.70;99.90
7206;DHT22;3644;53.480;10.004;2024-03-22T16:51:59;12.50;99.90
7206;DHT22;3644;53.480;10.004;2024-03-22T16:54:24;12.60;99.90
7206;DHT22;3644;53.480;10.004;2024-03-22T16:56:50;12.60;99.90
7206;DHT22;3644;53.480;10.004;2024-03-22T16:59:17;12.60;99.90
7206;DHT22;3644;53.480;10.004;2024-03-22T17:01:42;12.50;99.90
7206;DHT22;3644;53.480;10.004;2024-03-22T17:04:08;12.50;99.90
7206;DHT22;3644;53.480;10.004;2024-03-22T17:06:33;12.30;99.90
7206;DHT22;3644;53.480;10.004;2024-03-22T17:08:59;12.30;99.90
7206;DHT22;3644;53.480;10.004;2024-03-22T17:11:26;12.40;99.90
7206;DHT22;3644;53.480;10.004;2024-03-22T17:13:52;12.60;99.90
7206;DHT22;3644;53.480;10.004;2024-03-22T17:16:18;12.50;99.90
7206;DHT22;3644;53.480;10.004;2024-03-22T17:18:43;12.40;99.90
7206;DHT22;3644;53.480;10.004;2024-03-22T17:21:09;12.50;99.90
7206;DHT22;3644;53.480;10.004;2024-03-22T17:23:34;12.40;99.90
7206;DHT22;3644;53.480;10.004;2024-03-22T17:26:01;12.30;99.90
7206;DHT22;3644;53.480;10.004;2024-03-22T17:28:27;12.20;99.90
7206;DHT22;3644;53.480;10.004;2024-03-22T17:30:52;12.30;99.90
7206;DHT22;3644;53.480;10.004;2024-03-22T17:33:18;12.20;99.90
7206;DHT22;3644;53.480;10.004;2024-03-22T17:35:44;12.20;99.90
7206;DHT22;3644;53.480;10.004;2024-03-22T17:38:09;12.10;99.90
7206;DHT22;3644;53.480;10.004;2024-03-22T17:40:38;12.30;99.90
7206;DHT22;3644;53.480;10.004;2024-03-22T17:43:04;12.30;99.90
7206;DHT22;3644;53.480;10.004;2024-03-22T17:45:30;12.30;99.90
7206;DHT22;3644;53.480;10.004;2024-03-22T17:47:56;12.30;99.90
7206;DHT22;3644;53.480;10.004;2024-03-22T17:50:22;12.30;99.90
7206;DHT22;3644;53.480;10.004;2024-03-22T17:52:47;12.20;99.90
7206;DHT22;3644;53.480;10.004;2024-03-22T17:55:13;12.10;99.90
7206;DHT22;3644;53.480;10.004;2024-03-22T17:57:38;12.20;99.90
7206;DHT22;3644;53.480;10.004;2024-03-22T18:00:04;12.20;99.90
7206;DHT22;3644;53.480;10.004;2024-03-22T18:02:30;12.20;99.90
7206;DHT22;3644;53.480;10.004;2024-03-22T18:04:56;12.20;99.90
7206;DHT22;3644;53.480;10.004;2024-03-22T18:07:21;12.10;99.90
7206;DHT22;3644;53.480;10.004;2024-03-22T18:09:47;12.00;99.90
7206;DHT22;3644;53.480;10.004;2024-03-22T18:12:14;12.10;99.90
7206;DHT22;3644;53.480;10.004;2024-03-22T18:14:39;12.10;99.90
7206;DHT22;3644;53.480;10.004;2024-03-22T18:17:05;12.10;99.90
7206;DHT22;3644;53.480;10.004;2024-03-22T18:19:30;12.30;99.90
7206;DHT22;3644;53.480;10.004;2024-03-22T18:21:56;12.20;99.90
7206;DHT22;3644;53.480;10.004;2024-03-22T18:24:21;12.30;99.90
7206;DHT22;3644;53.480;10.004;2024-03-22T18:26:47;12.20;99.90
7206;DHT22;3644;53.480;10.004;2024-03-22T18:29:12;12.00;99.90
7206;DHT22;3644;53.480;10.004;2024-03-22T18:31:38;11.70;99.90
7206;DHT22;3644;53.480;10.004;2024-03-22T18:34:03;11.80;99.90
7206;DHT22;3644;53.480;10.004;2024-03-22T18:36:29;11.90;99.90
7206;DHT22;3644;53.480;10.004;2024-03-22T18:38:55;11.90;99.90
7206;DHT22;3644;53.480;10.004;2024-03-22T18:41:22;12.10;99.90
7206;DHT22;3644;53.480;10.004;2024-03-22T18:43:48;12.20;99.90
7206;DHT22;3644;53.480;10.004;2024-03-22T18:46:13;12.30;99.90
7206;DHT22;3644;53.480;10.004;2024-03-22T18:48:39;12.30;99.90
7206;DHT22;3644;53.480;10.004;2024-03-22T18:51:06;12.40;99.90
7206;DHT22;3644;53.480;10.004;2024-03-22T18:53:35;12.60;99.90
7206;DHT22;3644;53.480;10.004;2024-03-22T18:56:01;12.30;99.90
7206;DHT22;3644;53.480;10.004;2024-03-22T18:58:27;12.40;99.90
7206;DHT22;3644;53.480;10.004;2024-03-22T19:00:52;12.30;99.90
7206;DHT22;3644;53.480;10.004;2024-03-22T19:03:18;12.20;99.90
7206;DHT22;3644;53.480;10.004;2024-03-22T19:05:44;12.10;99.90
7206;DHT22;3644;53.480;10.004;2024-03-22T19:08:09;12.10;99.90
7206;DHT22;3644;53.480;10.004;2024-03-22T19:10:35;12.00;99.90
7206;DHT22;3644;53.480;10.004;2024-03-22T19:13:01;12.10;99.90
7206;DHT22;3644;53.480;10.004;2024-03-22T19:15:27;12.00;99.90
7206;DHT22;3644;53.480;10.004;2024-03-22T19:17:53;12.00;99.90
7206;DHT22;3644;53.480;10.004;2024-03-22T19:20:19;11.90;99.90
7206;DHT22;3644;53.480;10.004;2024-03-22T19:22:44;12.10;99.90
7206;DHT22;3644;53.480;10.004;2024-03-22T19:25:12;12.20;99.90
7206;DHT22;3644;53.480;10.004;2024-03-22T19:27:38;12.10;99.90
7206;DHT22;3644;53.480;10.004;2024-03-22T19:30:04;12.30;99.90
7206;DHT22;3644;53.480;10.004;2024-03-22T19:32:29;12.20;99.90
7206;DHT22;3644;53.480;10.004;2024-03-22T19:34:55;12.30;99.90
7206;DHT22;3644;53.480;10.004;2024-03-22T19:37:20;12.40;99.90
7206;DHT22;3644;53.480;10.004;2024-03-22T19:39:46;12.30;99.90
7206;DHT22;3644;53.480;10.004;2024-03-22T19:42:11;11.90;99.90
7206;DHT22;3644;53.480;10.004;2024-03-22T19:44:37;11.90;99.90
7206;DHT22;3644;53.480;10.004;2024-03-22T19:47:02;11.60;99.90
7206;DHT22;3644;53.480;10.004;2024-03-22T19:49:28;11.50;99.90
7206;DHT22;3644;53.480;10.004;2024-03-22T19:51:54;11.50;99.90
7206;DHT22;3644;53.480;10.004;2024-03-22T19:54:19;11.40;99.90
7206;DHT22;3644;53.480;10.004;2024-03-22T19:56:47;11.50;99.90
7206;DHT22;3644;53.480;10.004;2024-03-22T19:59:13;11.50;99.90
7206;DHT22;3644;53.480;10.004;2024-03-22T20:01:39;11.50;99.90
7206;DHT22;3644;53.480;10.004;2024-03-22T20:04:04;11.40;99.90
7206;DHT22;3644;53.480;10.004;2024-03-22T20:06:30;11.60;99.90
7206;DHT22;3644;53.480;10.004;2024-03-22T20:08:55;11.40;99.90
7206;DHT22;3644;53.480;10.004;2024-03-22T20:11:21;11.20;99.90
7206;DHT22;3644;53.480;10.004;2024-03-22T20:13:46;11.20;99.90
7206;DHT22;3644;53.480;10.004;2024-03-22T20:16:12;11.30;99.90
